sensor_id;sensor_type;location;lat;lon;timestamp;P1;durP1;ratioP1;P2;durP2;ratioP2
77870;SDS011;67067;46.850;7.578;2024-03-22T00:00:00;6.97;;;3.10;;
77870;SDS011;67067;46.850;7.578;2024-03-22T00:01:04;4.75;;;2.80;;
77870;SDS011;67067;46.850;7.578;2024-03-22T00:02:05;6.82;;;3.15;;
77870;SDS011;67067;46.850;7.578;2024-03-22T00:03:08;5.75;;;2.78;;
77870;SDS011;67067;46.850;7.578;2024-03-22T00:04:09;5.55;;;2.88;;
77870;SDS011;67067;46.850;7.578;2024-03-22T00:05:09;3.63;;;3.03;;
77870;SDS011;67067;46.850;7.578;2024-03-22T00:06:10;3.03;;;2.80;;
77870;SDS011;67067;46.850;7.578;2024-03-22T00:07:11;3.73;;;2.87;;
77870;SDS011;67067;46.850;7.578;2024-03-22T00:08:12;4.80;;;3.00;;
77870;SDS011;67067;46.850;7.578;2024-03-22T00:09:13;4.77;;;2.90;;
77870;SDS011;67067;46.850;7.578;2024-03-22T00:10:14;5.00;;;3.33;;
77870;SDS011;67067;46.850;7.578;2024-03-22T00:11:15;4.35;;;3.10;;
77870;SDS011;67067;46.850;7.578;2024-03-22T00:12:16;3.10;;;2.80;;
77870;SDS011;67067;46.850;7.578;2024-03-22T00:13:17;3.47;;;3.13;;
77870;SDS011;67067;46.850;7.578;2024-03-22T00:14:18;6.55;;;2.75;;
77870;SDS011;67067;46.850;7.578;2024-03-22T00:15:19;5.23;;;2.70;;
77870;SDS011;67067;46.850;7.578;2024-03-22T00:16:20;5.63;;;3.30;;
77870;SDS011;67067;46.850;7.578;2024-03-22T00:17:21;6.13;;;3.08;;
77870;SDS011;67067;46.850;7.578;2024-03-22T00:18:22;7.22;;;3.20;;
77870;SDS011;67067;46.850;7.578;2024-03-22T00:19:22;5.43;;;3.43;;
77870;SDS011;67067;46.850;7.578;2024-03-22T00:20:23;6.53;;;3.40;;
77870;SDS011;67067;46.850;7.578;2024-03-22T00:21:24;4.20;;;3.10;;
77870;SDS011;67067;46.850;7.578;2024-03-22T00:22:25;3.00;;;2.70;;
77870;SDS011;67067;46.850;7.578;2024-03-22T00:23:26;4.57;;;3.28;;
77870;SDS011;67067;46.850;7.578;2024-03-22T00:24:30;3.13;;;2.83;;
77870;SDS011;67067;46.850;7.578;2024-03-22T00:25:31;4.00;;;2.97;;
77870;SDS011;67067;46.850;7.578;2024-03-22T00:26:35;8.38;;;3.08;;
77870;SDS011;67067;46.850;7.578;2024-03-22T00:27:36;5.70;;;3.20;;
77870;SDS011;67067;46.850;7.578;2024-03-22T00:28:36;10.33;;;2.87;;
77870;SDS011;67067;46.850;7.578;2024-03-22T00:29:38;2.95;;;2.70;;
77870;SDS011;67067;46.850;7.578;2024-03-22T00:30:39;3.80;;;3.00;;
77870;SDS011;67067;46.850;7.578;2024-03-22T00:31:41;4.60;;;3.00;;
77870;SDS011;67067;46.850;7.578;2024-03-22T00:32:41;5.97;;;3.05;;
77870;SDS011;67067;46.850;7.578;2024-03-22T00:33:44;4.82;;;3.10;;
77870;SDS011;67067;46.850;7.578;2024-03-22T00:34:45;6.43;;;2.70;;
77870;SDS011;67067;46.850;7.578;2024-03-22T00:35:50;4.97;;;2.90;;
77870;SDS011;67067;46.850;7.578;2024-03-22T00:36:51;3.20;;;2.58;;
77870;SDS011;67067;46.850;7.578;2024-03-22T00:37:52;3.53;;;2.40;;
77870;SDS011;67067;46.850;7.578;2024-03-22T00:38:55;5.28;;;3.00;;
77870;SDS011;67067;46.850;7.578;2024-03-22T00:39:57;2.97;;;2.58;;
77870;SDS011;67067;46.850;7.578;2024-03-22T00:40:58;4.10;;;2.90;;
77870;SDS011;67067;46.850;7.578;2024-03-22T00:41:59;4.30;;;2.95;;
77870;SDS011;67067;46.850;7.578;2024-03-22T00:43:00;4.33;;;3.03;;
77870;SDS011;67067;46.850;7.578;2024-03-22T00:44:00;5.40;;;3.27;;
77870;SDS011;67067;46.850;7.578;2024-03-22T00:45:01;3.58;;;2.90;;
77870;SDS011;67067;46.850;7.578;2024-03-22T00:46:02;5.25;;;3.10;;
77870;SDS011;67067;46.850;7.578;2024-03-22T00:47:05;4.00;;;3.22;;
77870;SDS011;67067;46.850;7.578;2024-03-22T00:48:09;5.53;;;3.53;;
77870;SDS011;67067;46.850;7.578;2024-03-22T00:49:10;7.03;;;3.37;;
77870;SDS011;67067;46.850;7.578;2024-03-22T00:50:13;6.97;;;3.80;;
77870;SDS011;67067;46.850;7.578;2024-03-22T00:51:17;6.22;;;3.50;;
77870;SDS011;67067;46.850;7.578;2024-03-22T00:52:20;5.28;;;3.40;;
77870;SDS011;67067;46.850;7.578;2024-03-22T00:53:21;4.90;;;3.60;;
77870;SDS011;67067;46.850;7.578;2024-03-22T00:54:22;6.47;;;3.70;;
77870;SDS011;67067;46.850;7.578;2024-03-22T00:55:23;4.07;;;3.20;;
77870;SDS011;67067;46.850;7.578;2024-03-22T00:56:24;5.40;;;3.67;;
77870;SDS011;67067;46.850;7.578;2024-03-22T00:57:27;6.30;;;3.30;;
77870;SDS011;67067;46.850;7.578;2024-03-22T00:58:28;5.83;;;3.50;;
77870;SDS011;67067;46.850;7.578;2024-03-22T01:00:30;3.42;;;3.13;;
77870;SDS011;67067;46.850;7.578;2024-03-22T01:01:31;6.30;;;3.47;;
77870;SDS011;67067;46.850;7.578;2024-03-22T01:02:32;6.05;;;3.50;;
77870;SDS011;67067;46.850;7.578;2024-03-22T01:03:33;6.37;;;3.43;;
77870;SDS011;67067;46.850;7.578;2024-03-22T01:04:33;9.57;;;3.57;;
77870;SDS011;67067;46.850;7.578;2024-03-22T01:05:34;5.17;;;3.70;;
77870;SDS011;67067;46.850;7.578;2024-03-22T01:06:35;6.10;;;3.50;;
77870;SDS011;67067;46.850;7.578;2024-03-22T01:07:38;5.97;;;3.80;;
77870;SDS011;67067;46.850;7.578;2024-03-22T01:08:42;4.55;;;3.60;;
77870;SDS011;67067;46.850;7.578;2024-03-22T01:09:42;5.33;;;3.50;;
77870;SDS011;67067;46.850;7.578;2024-03-22T01:10:44;6.72;;;4.15;;
77870;SDS011;67067;46.850;7.578;2024-03-22T01:11:45;5.67;;;3.33;;
77870;SDS011;67067;46.850;7.578;2024-03-22T01:12:46;4.97;;;3.33;;
77870;SDS011;67067;46.850;7.578;2024-03-22T01:13:46;4.93;;;3.40;;
77870;SDS011;67067;46.850;7.578;2024-03-22T01:14:47;6.13;;;3.50;;
77870;SDS011;67067;46.850;7.578;2024-03-22T01:15:48;6.20;;;3.10;;
77870;SDS011;67067;46.850;7.578;2024-03-22T01:16:49;3.50;;;3.17;;
77870;SDS011;67067;46.850;7.578;2024-03-22T01:17:50;5.83;;;3.23;;
77870;SDS011;67067;46.850;7.578;2024-03-22T01:18:53;9.93;;;3.05;;
77870;SDS011;67067;46.850;7.578;2024-03-22T01:19:56;4.93;;;3.30;;
77870;SDS011;67067;46.850;7.578;2024-03-22T01:21:02;6.30;;;3.50;;
77870;SDS011;67067;46.850;7.578;2024-03-22T01:22:03;4.70;;;3.25;;
77870;SDS011;67067;46.850;7.578;2024-03-22T01:23:06;4.15;;;3.25;;
77870;SDS011;67067;46.850;7.578;2024-03-22T01:24:07;5.63;;;3.43;;
77870;SDS011;67067;46.850;7.578;2024-03-22T01:25:08;8.07;;;3.80;;
77870;SDS011;67067;46.850;7.578;2024-03-22T01:26:10;7.68;;;3.55;;
77870;SDS011;67067;46.850;7.578;2024-03-22T01:27:11;8.17;;;3.40;;
77870;SDS011;67067;46.850;7.578;2024-03-22T01:28:12;5.35;;;3.38;;
77870;SDS011;67067;46.850;7.578;2024-03-22T01:29:13;4.67;;;3.40;;
77870;SDS011;67067;46.850;7.578;2024-03-22T01:30:14;6.10;;;3.05;;
77870;SDS011;67067;46.850;7.578;2024-03-22T01:31:15;6.93;;;3.45;;
77870;SDS011;67067;46.850;7.578;2024-03-22T01:32:16;4.13;;;3.25;;
77870;SDS011;67067;46.850;7.578;2024-03-22T01:33:17;5.88;;;3.05;;
77870;SDS011;67067;46.850;7.578;2024-03-22T01:34:18;8.97;;;3.63;;
77870;SDS011;67067;46.850;7.578;2024-03-22T01:35:19;10.50;;;3.70;;
77870;SDS011;67067;46.850;7.578;2024-03-22T01:36:20;4.97;;;3.53;;
77870;SDS011;67067;46.850;7.578;2024-03-22T01:37:21;9.85;;;3.90;;
77870;SDS011;67067;46.850;7.578;2024-03-22T01:38:21;5.60;;;3.47;;
77870;SDS011;67067;46.850;7.578;2024-03-22T01:39:22;5.43;;;3.10;;
77870;SDS011;67067;46.850;7.578;2024-03-22T01:40:23;5.07;;;3.30;;
77870;SDS011;67067;46.850;7.578;2024-03-22T01:41:26;3.83;;;3.40;;
77870;SDS011;67067;46.850;7.578;2024-03-22T01:42:29;4.93;;;3.42;;
77870;SDS011;67067;46.850;7.578;2024-03-22T01:43:32;5.65;;;3.50;;
77870;SDS011;67067;46.850;7.578;2024-03-22T01:44:33;7.75;;;3.70;;
77870;SDS011;67067;46.850;7.578;2024-03-22T01:45:33;8.97;;;4.50;;
77870;SDS011;67067;46.850;7.578;2024-03-22T01:46:35;9.48;;;4.78;;
77870;SDS011;67067;46.850;7.578;2024-03-22T01:47:36;4.93;;;3.60;;
77870;SDS011;67067;46.850;7.578;2024-03-22T01:48:36;5.38;;;3.90;;
77870;SDS011;67067;46.850;7.578;2024-03-22T01:49:37;5.03;;;3.58;;
77870;SDS011;67067;46.850;7.578;2024-03-22T01:50:38;4.93;;;3.60;;
77870;SDS011;67067;46.850;7.578;2024-03-22T01:51:39;5.30;;;3.33;;
77870;SDS011;67067;46.850;7.578;2024-03-22T01:53:41;5.00;;;3.40;;
77870;SDS011;67067;46.850;7.578;2024-03-22T01:54:42;4.57;;;3.13;;
77870;SDS011;67067;46.850;7.578;2024-03-22T01:55:43;6.60;;;3.20;;
77870;SDS011;67067;46.850;7.578;2024-03-22T01:56:44;3.87;;;3.43;;
77870;SDS011;67067;46.850;7.578;2024-03-22T01:57:45;4.50;;;3.40;;
77870;SDS011;67067;46.850;7.578;2024-03-22T01:58:51;6.32;;;3.30;;
77870;SDS011;67067;46.850;7.578;2024-03-22T01:59:52;6.65;;;3.20;;
77870;SDS011;67067;46.850;7.578;2024-03-22T02:12:38;6.60;;;3.60;;
77870;SDS011;67067;46.850;7.578;2024-03-22T02:14:40;4.65;;;3.35;;
77870;SDS011;67067;46.850;7.578;2024-03-22T02:15:41;6.95;;;3.88;;
77870;SDS011;67067;46.850;7.578;2024-03-22T02:16:45;5.90;;;3.30;;
77870;SDS011;67067;46.850;7.578;2024-03-22T02:17:48;5.15;;;3.28;;
77870;SDS011;67067;46.850;7.578;2024-03-22T02:18:49;4.70;;;3.57;;
77870;SDS011;67067;46.850;7.578;2024-03-22T02:19:52;4.50;;;3.50;;
77870;SDS011;67067;46.850;7.578;2024-03-22T02:20:53;4.63;;;3.50;;
77870;SDS011;67067;46.850;7.578;2024-03-22T02:21:54;7.40;;;3.73;;
77870;SDS011;67067;46.850;7.578;2024-03-22T02:22:54;5.55;;;3.15;;
77870;SDS011;67067;46.850;7.578;2024-03-22T02:23:55;8.00;;;3.40;;
77870;SDS011;67067;46.850;7.578;2024-03-22T02:24:56;7.97;;;3.70;;
77870;SDS011;67067;46.850;7.578;2024-03-22T02:25:57;5.30;;;3.45;;
77870;SDS011;67067;46.850;7.578;2024-03-22T02:27:00;7.13;;;3.33;;
77870;SDS011;67067;46.850;7.578;2024-03-22T02:28:00;6.90;;;3.50;;
77870;SDS011;67067;46.850;7.578;2024-03-22T02:29:04;3.65;;;3.30;;
77870;SDS011;67067;46.850;7.578;2024-03-22T02:30:05;6.13;;;3.43;;
77870;SDS011;67067;46.850;7.578;2024-03-22T02:31:06;3.70;;;3.28;;
77870;SDS011;67067;46.850;7.578;2024-03-22T02:32:07;6.38;;;3.60;;
77870;SDS011;67067;46.850;7.578;2024-03-22T02:33:08;4.78;;;3.50;;
77870;SDS011;67067;46.850;7.578;2024-03-22T02:34:12;5.72;;;3.85;;
77870;SDS011;67067;46.850;7.578;2024-03-22T02:35:13;7.32;;;3.88;;
77870;SDS011;67067;46.850;7.578;2024-03-22T02:36:13;4.80;;;3.30;;
77870;SDS011;67067;46.850;7.578;2024-03-22T02:37:17;5.40;;;3.63;;
77870;SDS011;67067;46.850;7.578;2024-03-22T02:38:20;5.85;;;3.55;;
77870;SDS011;67067;46.850;7.578;2024-03-22T02:39:22;4.93;;;3.75;;
77870;SDS011;67067;46.850;7.578;2024-03-22T02:40:23;7.97;;;4.30;;
77870;SDS011;67067;46.850;7.578;2024-03-22T02:41:23;5.50;;;3.30;;
77870;SDS011;67067;46.850;7.578;2024-03-22T02:42:24;5.60;;;3.87;;
77870;SDS011;67067;46.850;7.578;2024-03-22T02:43:25;6.53;;;3.57;;
77870;SDS011;67067;46.850;7.578;2024-03-22T02:44:26;7.63;;;3.53;;
77870;SDS011;67067;46.850;7.578;2024-03-22T02:45:27;5.50;;;3.37;;
77870;SDS011;67067;46.850;7.578;2024-03-22T02:46:27;3.93;;;3.40;;
77870;SDS011;67067;46.850;7.578;2024-03-22T02:47:30;4.47;;;3.35;;
77870;SDS011;67067;46.850;7.578;2024-03-22T02:48:31;5.63;;;3.45;;
77870;SDS011;67067;46.850;7.578;2024-03-22T02:49:35;5.05;;;3.13;;
77870;SDS011;67067;46.850;7.578;2024-03-22T02:50:36;3.95;;;3.33;;
77870;SDS011;67067;46.850;7.578;2024-03-22T02:51:38;7.10;;;3.50;;
77870;SDS011;67067;46.850;7.578;2024-03-22T02:52:38;5.00;;;3.40;;
77870;SDS011;67067;46.850;7.578;2024-03-22T02:53:39;7.20;;;3.60;;
77870;SDS011;67067;46.850;7.578;2024-03-22T02:54:41;6.73;;;3.80;;
77870;SDS011;67067;46.850;7.578;2024-03-22T02:55:41;4.03;;;3.42;;
77870;SDS011;67067;46.850;7.578;2024-03-22T02:56:42;5.18;;;3.60;;
77870;SDS011;67067;46.850;7.578;2024-03-22T02:57:43;6.43;;;3.90;;
77870;SDS011;67067;46.850;7.578;2024-03-22T02:58:48;6.90;;;3.47;;
77870;SDS011;67067;46.850;7.578;2024-03-22T02:59:50;8.10;;;3.50;;
77870;SDS011;67067;46.850;7.578;2024-03-22T03:00:53;8.10;;;3.33;;
77870;SDS011;67067;46.850;7.578;2024-03-22T03:01:54;10.10;;;3.60;;
77870;SDS011;67067;46.850;7.578;2024-03-22T03:02:55;6.55;;;3.33;;
77870;SDS011;67067;46.850;7.578;2024-03-22T03:03:55;3.80;;;3.20;;
77870;SDS011;67067;46.850;7.578;2024-03-22T03:04:58;4.33;;;3.33;;
77870;SDS011;67067;46.850;7.578;2024-03-22T03:06:02;5.15;;;3.35;;
77870;SDS011;67067;46.850;7.578;2024-03-22T03:07:03;6.73;;;3.47;;
77870;SDS011;67067;46.850;7.578;2024-03-22T03:08:04;16.33;;;7.13;;
77870;SDS011;67067;46.850;7.578;2024-03-22T03:09:05;10.43;;;5.00;;
77870;SDS011;67067;46.850;7.578;2024-03-22T03:10:08;50.35;;;28.42;;
77870;SDS011;67067;46.850;7.578;2024-03-22T03:11:12;23.45;;;10.60;;
77870;SDS011;67067;46.850;7.578;2024-03-22T03:12:14;7.75;;;4.40;;
77870;SDS011;67067;46.850;7.578;2024-03-22T03:13:15;6.80;;;3.83;;
77870;SDS011;67067;46.850;7.578;2024-03-22T03:14:16;5.13;;;3.47;;
77870;SDS011;67067;46.850;7.578;2024-03-22T03:15:17;6.07;;;3.38;;
77870;SDS011;67067;46.850;7.578;2024-03-22T03:16:18;3.58;;;3.17;;
77870;SDS011;67067;46.850;7.578;2024-03-22T03:17:18;6.63;;;3.20;;
77870;SDS011;67067;46.850;7.578;2024-03-22T03:18:19;5.32;;;3.22;;
77870;SDS011;67067;46.850;7.578;2024-03-22T03:19:20;5.13;;;2.93;;
77870;SDS011;67067;46.850;7.578;2024-03-22T03:20:21;4.77;;;3.07;;
77870;SDS011;67067;46.850;7.578;2024-03-22T03:21:22;6.37;;;3.40;;
77870;SDS011;67067;46.850;7.578;2024-03-22T03:22:23;4.60;;;3.30;;
77870;SDS011;67067;46.850;7.578;2024-03-22T03:23:23;6.83;;;3.07;;
77870;SDS011;67067;46.850;7.578;2024-03-22T03:24:24;5.03;;;3.30;;
77870;SDS011;67067;46.850;7.578;2024-03-22T03:25:25;5.30;;;3.03;;
77870;SDS011;67067;46.850;7.578;2024-03-22T03:26:26;4.57;;;2.95;;
77870;SDS011;67067;46.850;7.578;2024-03-22T03:27:27;3.97;;;3.10;;
77870;SDS011;67067;46.850;7.578;2024-03-22T03:28:30;3.30;;;2.97;;
77870;SDS011;67067;46.850;7.578;2024-03-22T03:29:31;3.08;;;2.72;;
77870;SDS011;67067;46.850;7.578;2024-03-22T03:30:34;5.53;;;3.15;;
77870;SDS011;67067;46.850;7.578;2024-03-22T03:31:35;7.15;;;3.30;;
77870;SDS011;67067;46.850;7.578;2024-03-22T03:32:42;5.80;;;3.20;;
77870;SDS011;67067;46.850;7.578;2024-03-22T03:33:43;6.13;;;3.55;;
77870;SDS011;67067;46.850;7.578;2024-03-22T03:34:46;3.72;;;3.20;;
77870;SDS011;67067;46.850;7.578;2024-03-22T03:36:49;7.55;;;3.20;;
77870;SDS011;67067;46.850;7.578;2024-03-22T03:37:50;7.50;;;2.97;;
77870;SDS011;67067;46.850;7.578;2024-03-22T03:38:53;3.93;;;3.40;;
77870;SDS011;67067;46.850;7.578;2024-03-22T03:39:54;6.10;;;3.30;;
77870;SDS011;67067;46.850;7.578;2024-03-22T03:40:54;6.97;;;3.20;;
77870;SDS011;67067;46.850;7.578;2024-03-22T03:41:55;3.73;;;3.00;;
77870;SDS011;67067;46.850;7.578;2024-03-22T03:42:56;8.02;;;2.90;;
77870;SDS011;67067;46.850;7.578;2024-03-22T03:43:59;4.60;;;3.03;;
77870;SDS011;67067;46.850;7.578;2024-03-22T03:45:00;3.97;;;2.83;;
77870;SDS011;67067;46.850;7.578;2024-03-22T03:46:01;3.63;;;2.97;;
77870;SDS011;67067;46.850;7.578;2024-03-22T03:47:02;8.52;;;3.55;;
77870;SDS011;67067;46.850;7.578;2024-03-22T03:48:06;5.05;;;3.05;;
77870;SDS011;67067;46.850;7.578;2024-03-22T03:49:07;7.10;;;2.92;;
77870;SDS011;67067;46.850;7.578;2024-03-22T03:50:08;7.60;;;3.00;;
77870;SDS011;67067;46.850;7.578;2024-03-22T03:51:09;3.08;;;2.67;;
77870;SDS011;67067;46.850;7.578;2024-03-22T03:52:12;8.02;;;3.40;;
77870;SDS011;67067;46.850;7.578;2024-03-22T03:53:13;8.20;;;3.50;;
77870;SDS011;67067;46.850;7.578;2024-03-22T03:54:13;3.90;;;3.03;;
77870;SDS011;67067;46.850;7.578;2024-03-22T03:55:14;4.97;;;3.00;;
77870;SDS011;67067;46.850;7.578;2024-03-22T03:56:22;5.60;;;3.10;;
77870;SDS011;67067;46.850;7.578;2024-03-22T03:57:23;4.10;;;3.13;;
77870;SDS011;67067;46.850;7.578;2024-03-22T03:58:23;5.07;;;3.03;;
77870;SDS011;67067;46.850;7.578;2024-03-22T03:59:24;4.13;;;2.87;;
77870;SDS011;67067;46.850;7.578;2024-03-22T04:00:27;4.10;;;3.13;;
77870;SDS011;67067;46.850;7.578;2024-03-22T04:01:28;3.50;;;2.90;;
77870;SDS011;67067;46.850;7.578;2024-03-22T04:02:29;4.07;;;3.23;;
77870;SDS011;67067;46.850;7.578;2024-03-22T04:03:30;3.37;;;3.07;;
77870;SDS011;67067;46.850;7.578;2024-03-22T04:04:30;3.45;;;3.10;;
77870;SDS011;67067;46.850;7.578;2024-03-22T04:05:31;3.93;;;2.60;;
77870;SDS011;67067;46.850;7.578;2024-03-22T04:06:34;5.07;;;3.10;;
77870;SDS011;67067;46.850;7.578;2024-03-22T04:07:35;3.20;;;2.83;;
77870;SDS011;67067;46.850;7.578;2024-03-22T04:08:36;4.73;;;3.27;;
77870;SDS011;67067;46.850;7.578;2024-03-22T04:09:36;5.57;;;3.30;;
77870;SDS011;67067;46.850;7.578;2024-03-22T04:10:37;4.97;;;2.97;;
77870;SDS011;67067;46.850;7.578;2024-03-22T04:11:38;3.20;;;2.90;;
77870;SDS011;67067;46.850;7.578;2024-03-22T04:12:39;6.05;;;3.08;;
77870;SDS011;67067;46.850;7.578;2024-03-22T04:13:40;4.53;;;3.20;;
77870;SDS011;67067;46.850;7.578;2024-03-22T04:14:40;6.75;;;3.10;;
77870;SDS011;67067;46.850;7.578;2024-03-22T04:15:41;3.47;;;3.00;;
77870;SDS011;67067;46.850;7.578;2024-03-22T04:16:42;5.35;;;3.25;;
77870;SDS011;67067;46.850;7.578;2024-03-22T04:17:43;2.97;;;2.67;;
77870;SDS011;67067;46.850;7.578;2024-03-22T04:18:43;4.77;;;3.20;;
77870;SDS011;67067;46.850;7.578;2024-03-22T04:19:44;3.57;;;3.27;;
77870;SDS011;67067;46.850;7.578;2024-03-22T04:20:54;3.83;;;3.17;;
77870;SDS011;67067;46.850;7.578;2024-03-22T04:21:56;4.72;;;3.40;;
77870;SDS011;67067;46.850;7.578;2024-03-22T04:22:57;6.47;;;3.38;;
77870;SDS011;67067;46.850;7.578;2024-03-22T04:24:00;6.63;;;3.90;;
77870;SDS011;67067;46.850;7.578;2024-03-22T04:25:02;4.57;;;3.33;;
77870;SDS011;67067;46.850;7.578;2024-03-22T04:26:06;3.65;;;3.08;;
77870;SDS011;67067;46.850;7.578;2024-03-22T04:27:07;4.40;;;3.30;;
77870;SDS011;67067;46.850;7.578;2024-03-22T04:28:08;6.83;;;3.60;;
77870;SDS011;67067;46.850;7.578;2024-03-22T04:29:11;5.63;;;3.38;;
77870;SDS011;67067;46.850;7.578;2024-03-22T04:30:14;7.15;;;3.40;;
77870;SDS011;67067;46.850;7.578;2024-03-22T04:31:15;8.00;;;3.40;;
77870;SDS011;67067;46.850;7.578;2024-03-22T04:32:16;6.00;;;3.78;;
77870;SDS011;67067;46.850;7.578;2024-03-22T04:33:17;4.97;;;3.60;;
77870;SDS011;67067;46.850;7.578;2024-03-22T04:34:17;6.37;;;3.83;;
77870;SDS011;67067;46.850;7.578;2024-03-22T04:35:20;6.10;;;3.40;;
77870;SDS011;67067;46.850;7.578;2024-03-22T04:36:21;4.03;;;3.60;;
77870;SDS011;67067;46.850;7.578;2024-03-22T04:37:23;9.20;;;3.40;;
77870;SDS011;67067;46.850;7.578;2024-03-22T04:38:27;6.07;;;3.38;;
77870;SDS011;67067;46.850;7.578;2024-03-22T04:39:28;5.97;;;3.10;;
77870;SDS011;67067;46.850;7.578;2024-03-22T04:40:29;4.17;;;3.43;;
77870;SDS011;67067;46.850;7.578;2024-03-22T04:41:30;5.78;;;3.33;;
77870;SDS011;67067;46.850;7.578;2024-03-22T04:42:31;7.13;;;3.07;;
77870;SDS011;67067;46.850;7.578;2024-03-22T04:43:34;7.20;;;3.67;;
77870;SDS011;67067;46.850;7.578;2024-03-22T04:44:37;3.63;;;2.97;;
77870;SDS011;67067;46.850;7.578;2024-03-22T04:45:38;4.97;;;3.30;;
77870;SDS011;67067;46.850;7.578;2024-03-22T04:46:39;5.53;;;3.20;;
77870;SDS011;67067;46.850;7.578;2024-03-22T04:47:40;6.65;;;3.30;;
77870;SDS011;67067;46.850;7.578;2024-03-22T04:48:41;5.88;;;3.22;;
77870;SDS011;67067;46.850;7.578;2024-03-22T04:49:41;5.20;;;3.33;;
77870;SDS011;67067;46.850;7.578;2024-03-22T04:50:42;4.00;;;3.00;;
77870;SDS011;67067;46.850;7.578;2024-03-22T04:51:46;5.00;;;3.38;;
77870;SDS011;67067;46.850;7.578;2024-03-22T04:52:47;4.32;;;3.28;;
77870;SDS011;67067;46.850;7.578;2024-03-22T04:53:48;3.77;;;3.07;;
77870;SDS011;67067;46.850;7.578;2024-03-22T04:54:51;6.10;;;3.10;;
77870;SDS011;67067;46.850;7.578;2024-03-22T04:55:52;4.90;;;3.20;;
77870;SDS011;67067;46.850;7.578;2024-03-22T04:56:53;7.32;;;3.55;;
77870;SDS011;67067;46.850;7.578;2024-03-22T04:57:54;7.33;;;3.50;;
77870;SDS011;67067;46.850;7.578;2024-03-22T04:58:55;6.28;;;3.45;;
77870;SDS011;67067;46.850;7.578;2024-03-22T04:59:58;5.63;;;3.17;;
77870;SDS011;67067;46.850;7.578;2024-03-22T05:02:21;6.35;;;3.20;;
77870;SDS011;67067;46.850;7.578;2024-03-22T05:03:22;3.88;;;3.20;;
77870;SDS011;67067;46.850;7.578;2024-03-22T05:04:23;4.87;;;3.20;;
77870;SDS011;67067;46.850;7.578;2024-03-22T05:05:24;3.58;;;3.00;;
77870;SDS011;67067;46.850;7.578;2024-03-22T05:06:25;8.93;;;3.53;;
77870;SDS011;67067;46.850;7.578;2024-03-22T05:07:25;6.13;;;2.80;;
77870;SDS011;67067;46.850;7.578;2024-03-22T05:08:26;4.05;;;2.90;;
77870;SDS011;67067;46.850;7.578;2024-03-22T05:09:27;6.68;;;3.13;;
77870;SDS011;67067;46.850;7.578;2024-03-22T05:10:30;4.55;;;3.40;;
77870;SDS011;67067;46.850;7.578;2024-03-22T05:11:33;3.00;;;2.70;;
77870;SDS011;67067;46.850;7.578;2024-03-22T05:12:34;5.00;;;3.20;;
77870;SDS011;67067;46.850;7.578;2024-03-22T05:13:36;4.30;;;3.13;;
77870;SDS011;67067;46.850;7.578;2024-03-22T05:14:36;4.17;;;3.40;;
77870;SDS011;67067;46.850;7.578;2024-03-22T05:15:39;4.22;;;3.25;;
77870;SDS011;67067;46.850;7.578;2024-03-22T05:16:40;4.45;;;3.22;;
77870;SDS011;67067;46.850;7.578;2024-03-22T05:17:44;4.00;;;3.22;;
77870;SDS011;67067;46.850;7.578;2024-03-22T05:18:44;5.63;;;3.10;;
77870;SDS011;67067;46.850;7.578;2024-03-22T05:19:45;13.03;;;8.17;;
77870;SDS011;67067;46.850;7.578;2024-03-22T05:20:46;7.23;;;3.23;;
77870;SDS011;67067;46.850;7.578;2024-03-22T05:21:49;5.93;;;3.30;;
77870;SDS011;67067;46.850;7.578;2024-03-22T05:22:50;4.60;;;3.27;;
77870;SDS011;67067;46.850;7.578;2024-03-22T05:23:50;10.17;;;4.13;;
77870;SDS011;67067;46.850;7.578;2024-03-22T05:24:51;4.20;;;3.28;;
77870;SDS011;67067;46.850;7.578;2024-03-22T05:25:52;7.30;;;3.30;;
77870;SDS011;67067;46.850;7.578;2024-03-22T05:26:53;4.60;;;3.53;;
77870;SDS011;67067;46.850;7.578;2024-03-22T05:27:54;17.52;;;8.80;;
77870;SDS011;67067;46.850;7.578;2024-03-22T05:28:57;8.80;;;4.65;;
77870;SDS011;67067;46.850;7.578;2024-03-22T05:29:57;10.10;;;4.77;;
77870;SDS011;67067;46.850;7.578;2024-03-22T05:30:59;21.50;;;10.20;;
77870;SDS011;67067;46.850;7.578;2024-03-22T05:31:59;24.47;;;9.60;;
77870;SDS011;67067;46.850;7.578;2024-03-22T05:33:03;43.72;;;24.83;;
77870;SDS011;67067;46.850;7.578;2024-03-22T05:34:06;33.28;;;16.98;;
77870;SDS011;67067;46.850;7.578;2024-03-22T05:35:07;32.63;;;16.57;;
77870;SDS011;67067;46.850;7.578;2024-03-22T05:36:08;53.35;;;34.20;;
77870;SDS011;67067;46.850;7.578;2024-03-22T05:37:09;72.80;;;49.33;;
77870;SDS011;67067;46.850;7.578;2024-03-22T05:38:11;94.80;;;64.18;;
77870;SDS011;67067;46.850;7.578;2024-03-22T05:39:17;80.75;;;57.83;;
77870;SDS011;67067;46.850;7.578;2024-03-22T05:40:18;76.13;;;57.65;;
77870;SDS011;67067;46.850;7.578;2024-03-22T05:41:18;51.73;;;38.67;;
77870;SDS011;67067;46.850;7.578;2024-03-22T05:42:19;34.73;;;21.57;;
77870;SDS011;67067;46.850;7.578;2024-03-22T05:43:22;25.27;;;14.80;;
77870;SDS011;67067;46.850;7.578;2024-03-22T05:44:23;17.88;;;8.80;;
77870;SDS011;67067;46.850;7.578;2024-03-22T05:45:24;14.90;;;7.85;;
77870;SDS011;67067;46.850;7.578;2024-03-22T05:46:25;11.77;;;6.18;;
77870;SDS011;67067;46.850;7.578;2024-03-22T05:47:28;8.73;;;4.68;;
77870;SDS011;67067;46.850;7.578;2024-03-22T05:48:31;7.35;;;4.00;;
77870;SDS011;67067;46.850;7.578;2024-03-22T05:49:32;7.43;;;4.37;;
77870;SDS011;67067;46.850;7.578;2024-03-22T05:50:33;5.10;;;3.43;;
77870;SDS011;67067;46.850;7.578;2024-03-22T05:51:35;4.63;;;3.30;;
77870;SDS011;67067;46.850;7.578;2024-03-22T05:52:36;5.13;;;3.30;;
77870;SDS011;67067;46.850;7.578;2024-03-22T05:53:37;4.43;;;3.17;;
77870;SDS011;67067;46.850;7.578;2024-03-22T05:54:38;6.70;;;3.20;;
77870;SDS011;67067;46.850;7.578;2024-03-22T05:55:39;7.05;;;3.70;;
77870;SDS011;67067;46.850;7.578;2024-03-22T05:56:39;4.90;;;3.57;;
77870;SDS011;67067;46.850;7.578;2024-03-22T05:57:40;8.57;;;5.57;;
77870;SDS011;67067;46.850;7.578;2024-03-22T05:58:41;13.17;;;6.90;;
77870;SDS011;67067;46.850;7.578;2024-03-22T05:59:44;10.32;;;5.30;;
77870;SDS011;67067;46.850;7.578;2024-03-22T06:00:45;11.03;;;6.30;;
77870;SDS011;67067;46.850;7.578;2024-03-22T06:01:46;11.83;;;5.40;;
77870;SDS011;67067;46.850;7.578;2024-03-22T06:02:46;11.53;;;6.03;;
77870;SDS011;67067;46.850;7.578;2024-03-22T06:03:47;10.90;;;6.00;;
77870;SDS011;67067;46.850;7.578;2024-03-22T06:04:50;9.52;;;4.32;;
77870;SDS011;67067;46.850;7.578;2024-03-22T06:05:52;6.30;;;4.23;;
77870;SDS011;67067;46.850;7.578;2024-03-22T06:06:59;9.18;;;4.80;;
77870;SDS011;67067;46.850;7.578;2024-03-22T06:08:05;10.73;;;6.10;;
77870;SDS011;67067;46.850;7.578;2024-03-22T06:09:07;14.38;;;7.20;;
77870;SDS011;67067;46.850;7.578;2024-03-22T06:10:11;15.63;;;7.63;;
77870;SDS011;67067;46.850;7.578;2024-03-22T06:11:12;20.75;;;9.68;;
77870;SDS011;67067;46.850;7.578;2024-03-22T06:12:13;12.57;;;5.43;;
77870;SDS011;67067;46.850;7.578;2024-03-22T06:13:14;11.32;;;4.90;;
77870;SDS011;67067;46.850;7.578;2024-03-22T06:14:15;14.45;;;6.00;;
77870;SDS011;67067;46.850;7.578;2024-03-22T06:15:16;8.88;;;5.07;;
77870;SDS011;67067;46.850;7.578;2024-03-22T06:16:17;11.23;;;4.63;;
77870;SDS011;67067;46.850;7.578;2024-03-22T06:17:18;10.75;;;3.60;;
77870;SDS011;67067;46.850;7.578;2024-03-22T06:18:21;6.32;;;3.58;;
77870;SDS011;67067;46.850;7.578;2024-03-22T06:19:22;10.23;;;3.90;;
77870;SDS011;67067;46.850;7.578;2024-03-22T06:20:23;6.82;;;3.58;;
77870;SDS011;67067;46.850;7.578;2024-03-22T06:21:24;6.83;;;3.47;;
77870;SDS011;67067;46.850;7.578;2024-03-22T06:23:26;6.95;;;3.67;;
77870;SDS011;67067;46.850;7.578;2024-03-22T06:24:29;4.22;;;3.42;;
77870;SDS011;67067;46.850;7.578;2024-03-22T06:25:32;5.63;;;3.22;;
77870;SDS011;67067;46.850;7.578;2024-03-22T06:26:33;6.17;;;3.30;;
77870;SDS011;67067;46.850;7.578;2024-03-22T06:27:34;3.27;;;2.83;;